sensor_id;sensor_type;location;lat;lon;timestamp;pressure;altitude;pressure_sealevel;temperature;humidity
60832;BME280;46665;51.558;-0.448;2024-01-30T00:00:42;101539.66;;;11.00;100.00
60832;BME280;46665;51.558;-0.448;2024-01-30T00:03:26;101535.53;;;10.98;100.00
60832;BME280;46665;51.558;-0.448;2024-01-30T00:06:11;101514.59;;;11.03;100.00
60832;BME280;46665;51.558;-0.448;2024-01-30T00:08:55;101523.34;;;11.05;100.00
60832;BME280;46665;51.558;-0.448;2024-01-30T00:11:39;101530.69;;;11.05;100.00
60832;BME280;46665;51.558;-0.448;2024-01-30T00:14:23;101519.56;;;11.06;100.00
60832;BME280;46665;51.558;-0.448;2024-01-30T00:17:07;101540.56;;;11.16;100.00
60832;BME280;46665;51.558;-0.448;2024-01-30T00:19:51;101516.34;;;11.20;100.00
60832;BME280;46665;51.558;-0.448;2024-01-30T00:22:35;101516.03;;;11.16;100.00
60832;BME280;46665;51.558;-0.448;2024-01-30T00:25:19;101519.88;;;11.15;100.00
60832;BME280;46665;51.558;-0.448;2024-01-30T00:28:03;101518.22;;;11.14;100.00
60832;BME280;46665;51.558;-0.448;2024-01-30T00:30:47;101522.59;;;11.15;100.00
60832;BME280;46665;51.558;-0.448;2024-01-30T00:33:31;101525.03;;;11.12;100.00
60832;BME280;46665;51.558;-0.448;2024-01-30T00:36:15;101525.25;;;11.05;100.00
60832;BME280;46665;51.558;-0.448;2024-01-30T00:38:59;101528.56;;;11.12;100.00
60832;BME280;46665;51.558;-0.448;2024-01-30T00:41:43;101521.72;;;11.04;100.00
60832;BME280;46665;51.558;-0.448;2024-01-30T00:44:27;101516.00;;;11.11;100.00
60832;BME280;46665;51.558;-0.448;2024-01-30T00:47:11;101515.97;;;11.06;100.00
60832;BME280;46665;51.558;-0.448;2024-01-30T00:49:55;101504.81;;;11.02;100.00
60832;BME280;46665;51.558;-0.448;2024-01-30T00:52:39;101498.50;;;10.97;100.00
60832;BME280;46665;51.558;-0.448;2024-01-30T00:55:25;101489.47;;;10.91;100.00
60832;BME280;46665;51.558;-0.448;2024-01-30T00:58:09;101498.44;;;10.87;100.00
60832;BME280;46665;51.558;-0.448;2024-01-30T01:00:53;101492.47;;;10.90;100.00
60832;BME280;46665;51.558;-0.448;2024-01-30T01:03:37;101491.34;;;10.85;100.00
60832;BME280;46665;51.558;-0.448;2024-01-30T01:06:21;101496.50;;;10.82;100.00
60832;BME280;46665;51.558;-0.448;2024-01-30T01:09:05;101504.63;;;10.77;100.00
60832;BME280;46665;51.558;-0.448;2024-01-30T01:11:48;101510.84;;;10.72;100.00
60832;BME280;46665;51.558;-0.448;2024-01-30T01:14:32;101514.59;;;10.61;100.00
60832;BME280;46665;51.558;-0.448;2024-01-30T01:17:16;101516.47;;;10.60;100.00
60832;BME280;46665;51.558;-0.448;2024-01-30T01:20:03;101521.34;;;10.53;100.00
60832;BME280;46665;51.558;-0.448;2024-01-30T01:22:47;101514.41;;;10.40;100.00
60832;BME280;46665;51.558;-0.448;2024-01-30T01:25:31;101538.06;;;10.40;100.00
60832;BME280;46665;51.558;-0.448;2024-01-30T01:28:15;101544.22;;;10.30;100.00
60832;BME280;46665;51.558;-0.448;2024-01-30T01:30:59;101500.34;;;10.22;100.00
60832;BME280;46665;51.558;-0.448;2024-01-30T01:33:48;101509.25;;;10.17;100.00
60832;BME280;46665;51.558;-0.448;2024-01-30T01:36:32;101498.75;;;9.98;100.00
60832;BME280;46665;51.558;-0.448;2024-01-30T01:39:16;101517.72;;;9.93;100.00
60832;BME280;46665;51.558;-0.448;2024-01-30T01:42:00;101508.19;;;9.91;100.00
60832;BME280;46665;51.558;-0.448;2024-01-30T01:44:45;101509.19;;;9.85;100.00
60832;BME280;46665;51.558;-0.448;2024-01-30T01:47:29;101512.47;;;9.87;100.00
60832;BME280;46665;51.558;-0.448;2024-01-30T01:50:15;101531.16;;;9.78;100.00
60832;BME280;46665;51.558;-0.448;2024-01-30T01:53:03;101530.00;;;9.74;100.00
60832;BME280;46665;51.558;-0.448;2024-01-30T01:55:47;101529.44;;;9.72;100.00
60832;BME280;46665;51.558;-0.448;2024-01-30T01:58:32;101542.19;;;9.71;100.00
60832;BME280;46665;51.558;-0.448;2024-01-30T02:01:18;101538.38;;;9.67;100.00
60832;BME280;46665;51.558;-0.448;2024-01-30T02:04:04;101515.47;;;9.63;100.00
60832;BME280;46665;51.558;-0.448;2024-01-30T02:06:48;101513.84;;;9.62;100.00
60832;BME280;46665;51.558;-0.448;2024-01-30T02:09:32;101534.44;;;9.58;100.00
60832;BME280;46665;51.558;-0.448;2024-01-30T02:12:16;101545.56;;;9.57;100.00
60832;BME280;46665;51.558;-0.448;2024-01-30T02:15:00;101534.69;;;9.57;100.00
60832;BME280;46665;51.558;-0.448;2024-01-30T02:17:44;101527.84;;;9.54;100.00
60832;BME280;46665;51.558;-0.448;2024-01-30T02:20:29;101527.28;;;9.52;100.00
60832;BME280;46665;51.558;-0.448;2024-01-30T02:23:15;101535.44;;;9.52;100.00
60832;BME280;46665;51.558;-0.448;2024-01-30T02:26:00;101539.75;;;9.48;100.00
60832;BME280;46665;51.558;-0.448;2024-01-30T02:28:44;101535.88;;;9.44;100.00
60832;BME280;46665;51.558;-0.448;2024-01-30T02:31:28;101518.19;;;9.41;100.00
60832;BME280;46665;51.558;-0.448;2024-01-30T02:34:13;101506.50;;;9.41;100.00
60832;BME280;46665;51.558;-0.448;2024-01-30T02:36:57;101498.28;;;9.36;100.00
60832;BME280;46665;51.558;-0.448;2024-01-30T02:39:41;101512.88;;;9.29;100.00
60832;BME280;46665;51.558;-0.448;2024-01-30T02:42:25;101517.16;;;9.25;100.00
60832;BME280;46665;51.558;-0.448;2024-01-30T02:45:10;101529.59;;;9.21;100.00
60832;BME280;46665;51.558;-0.448;2024-01-30T02:47:54;101529.59;;;9.21;100.00
60832;BME280;46665;51.558;-0.448;2024-01-30T02:50:38;101540.16;;;9.18;100.00
60832;BME280;46665;51.558;-0.448;2024-01-30T02:53:22;101543.38;;;9.15;100.00
60832;BME280;46665;51.558;-0.448;2024-01-30T02:56:06;101542.72;;;9.07;100.00
60832;BME280;46665;51.558;-0.448;2024-01-30T02:58:52;101534.00;;;9.05;100.00
60832;BME280;46665;51.558;-0.448;2024-01-30T03:01:43;101531.78;;;9.02;100.00
60832;BME280;46665;51.558;-0.448;2024-01-30T03:04:27;101547.19;;;8.97;100.00
60832;BME280;46665;51.558;-0.448;2024-01-30T03:07:13;101534.66;;;8.96;100.00
60832;BME280;46665;51.558;-0.448;2024-01-30T03:09:58;101540.19;;;8.84;100.00
60832;BME280;46665;51.558;-0.448;2024-01-30T03:12:42;101547.03;;;8.86;100.00
60832;BME280;46665;51.558;-0.448;2024-01-30T03:15:26;101547.25;;;8.85;100.00
60832;BME280;46665;51.558;-0.448;2024-01-30T03:18:09;101548.50;;;8.77;100.00
60832;BME280;46665;51.558;-0.448;2024-01-30T03:20:54;101549.31;;;8.78;100.00
60832;BME280;46665;51.558;-0.448;2024-01-30T03:23:37;101536.47;;;8.73;100.00
60832;BME280;46665;51.558;-0.448;2024-01-30T03:26:21;101541.91;;;8.73;100.00
60832;BME280;46665;51.558;-0.448;2024-01-30T03:29:05;101539.09;;;8.68;100.00
60832;BME280;46665;51.558;-0.448;2024-01-30T03:31:50;101545.69;;;8.72;100.00
60832;BME280;46665;51.558;-0.448;2024-01-30T03:34:33;101548.63;;;8.71;100.00
60832;BME280;46665;51.558;-0.448;2024-01-30T03:37:17;101546.78;;;8.71;100.00
60832;BME280;46665;51.558;-0.448;2024-01-30T03:40:02;101554.66;;;8.73;100.00
60832;BME280;46665;51.558;-0.448;2024-01-30T03:42:47;101554.91;;;8.71;100.00
60832;BME280;46665;51.558;-0.448;2024-01-30T03:45:31;101555.47;;;8.73;100.00
60832;BME280;46665;51.558;-0.448;2024-01-30T03:48:15;101553.84;;;8.72;100.00
60832;BME280;46665;51.558;-0.448;2024-01-30T03:50:58;101550.53;;;8.70;100.00
60832;BME280;46665;51.558;-0.448;2024-01-30T03:53:43;101551.53;;;8.64;100.00
60832;BME280;46665;51.558;-0.448;2024-01-30T03:56:27;101550.72;;;8.63;100.00
60832;BME280;46665;51.558;-0.448;2024-01-30T03:59:11;101542.81;;;8.62;100.00
60832;BME280;46665;51.558;-0.448;2024-01-30T04:01:55;101543.03;;;8.60;100.00
60832;BME280;46665;51.558;-0.448;2024-01-30T04:04:39;101549.47;;;8.54;100.00
60832;BME280;46665;51.558;-0.448;2024-01-30T04:07:23;101549.97;;;8.51;100.00
60832;BME280;46665;51.558;-0.448;2024-01-30T04:10:07;101549.38;;;8.49;100.00
60832;BME280;46665;51.558;-0.448;2024-01-30T04:12:51;101546.91;;;8.48;100.00
60832;BME280;46665;51.558;-0.448;2024-01-30T04:15:36;101552.91;;;8.50;100.00
60832;BME280;46665;51.558;-0.448;2024-01-30T04:18:20;101551.28;;;8.49;100.00
60832;BME280;46665;51.558;-0.448;2024-01-30T04:21:04;101546.91;;;8.48;100.00
60832;BME280;46665;51.558;-0.448;2024-01-30T04:23:48;101552.59;;;8.46;100.00
60832;BME280;46665;51.558;-0.448;2024-01-30T04:26:32;101543.88;;;8.44;100.00
60832;BME280;46665;51.558;-0.448;2024-01-30T04:29:16;101547.97;;;8.46;100.00
60832;BME280;46665;51.558;-0.448;2024-01-30T04:32:00;101555.03;;;8.48;100.00
60832;BME280;46665;51.558;-0.448;2024-01-30T04:34:44;101557.66;;;8.42;100.00
60832;BME280;46665;51.558;-0.448;2024-01-30T04:37:28;101557.16;;;8.45;100.00
60832;BME280;46665;51.558;-0.448;2024-01-30T04:40:12;101556.34;;;8.45;100.00
60832;BME280;46665;51.558;-0.448;2024-01-30T04:42:56;101571.72;;;8.39;100.00
60832;BME280;46665;51.558;-0.448;2024-01-30T04:45:40;101574.44;;;8.39;100.00
60832;BME280;46665;51.558;-0.448;2024-01-30T04:48:24;101578.41;;;8.37;100.00
60832;BME280;46665;51.558;-0.448;2024-01-30T04:51:08;101570.28;;;8.37;100.00
60832;BME280;46665;51.558;-0.448;2024-01-30T04:53:52;101564.53;;;8.33;100.00
60832;BME280;46665;51.558;-0.448;2024-01-30T04:56:36;101571.00;;;8.32;100.00
60832;BME280;46665;51.558;-0.448;2024-01-30T04:59:20;101594.94;;;8.35;100.00
60832;BME280;46665;51.558;-0.448;2024-01-30T05:02:04;101591.66;;;8.33;100.00
60832;BME280;46665;51.558;-0.448;2024-01-30T05:04:48;101593.19;;;8.29;100.00
60832;BME280;46665;51.558;-0.448;2024-01-30T05:07:32;101595.38;;;8.15;100.00
60832;BME280;46665;51.558;-0.448;2024-01-30T05:10:16;101598.03;;;7.98;100.00
60832;BME280;46665;51.558;-0.448;2024-01-30T05:13:00;101621.50;;;7.81;100.00
60832;BME280;46665;51.558;-0.448;2024-01-30T05:15:44;101613.75;;;7.73;100.00
60832;BME280;46665;51.558;-0.448;2024-01-30T05:18:28;101621.41;;;7.64;100.00
60832;BME280;46665;51.558;-0.448;2024-01-30T05:21:12;101623.78;;;7.60;100.00
60832;BME280;46665;51.558;-0.448;2024-01-30T05:23:56;101635.22;;;7.51;100.00
60832;BME280;46665;51.558;-0.448;2024-01-30T05:26:40;101636.41;;;7.55;100.00
60832;BME280;46665;51.558;-0.448;2024-01-30T05:29:24;101641.69;;;7.50;100.00
60832;BME280;46665;51.558;-0.448;2024-01-30T05:32:08;101651.69;;;7.49;100.00
60832;BME280;46665;51.558;-0.448;2024-01-30T05:34:52;101654.06;;;7.46;100.00
60832;BME280;46665;51.558;-0.448;2024-01-30T05:37:37;101653.72;;;7.42;100.00
60832;BME280;46665;51.558;-0.448;2024-01-30T05:40:21;101661.59;;;7.32;100.00
60832;BME280;46665;51.558;-0.448;2024-01-30T05:43:05;101674.97;;;7.15;100.00
60832;BME280;46665;51.558;-0.448;2024-01-30T05:45:49;101671.91;;;7.11;100.00
60832;BME280;46665;51.558;-0.448;2024-01-30T05:48:33;101683.31;;;7.02;100.00
60832;BME280;46665;51.558;-0.448;2024-01-30T05:51:19;101693.63;;;6.93;100.00
60832;BME280;46665;51.558;-0.448;2024-01-30T05:54:03;101689.63;;;6.95;100.00
60832;BME280;46665;51.558;-0.448;2024-01-30T05:56:48;101702.56;;;6.93;100.00
60832;BME280;46665;51.558;-0.448;2024-01-30T05:59:32;101709.72;;;6.88;100.00
60832;BME280;46665;51.558;-0.448;2024-01-30T06:02:16;101700.66;;;6.82;100.00
60832;BME280;46665;51.558;-0.448;2024-01-30T06:05:00;101712.31;;;6.83;100.00
60832;BME280;46665;51.558;-0.448;2024-01-30T06:07:43;101709.97;;;6.86;100.00
60832;BME280;46665;51.558;-0.448;2024-01-30T06:10:27;101724.69;;;6.90;100.00
60832;BME280;46665;51.558;-0.448;2024-01-30T06:13:11;101732.81;;;6.90;100.00
60832;BME280;46665;51.558;-0.448;2024-01-30T06:15:55;101733.63;;;6.91;100.00
60832;BME280;46665;51.558;-0.448;2024-01-30T06:18:40;101730.34;;;6.89;100.00
60832;BME280;46665;51.558;-0.448;2024-01-30T06:21:26;101740.22;;;6.95;100.00
60832;BME280;46665;51.558;-0.448;2024-01-30T06:24:10;101744.81;;;6.94;100.00
60832;BME280;46665;51.558;-0.448;2024-01-30T06:26:54;101750.00;;;6.96;100.00
60832;BME280;46665;51.558;-0.448;2024-01-30T06:29:38;101765.41;;;6.95;100.00
60832;BME280;46665;51.558;-0.448;2024-01-30T06:32:22;101760.13;;;7.01;100.00
60832;BME280;46665;51.558;-0.448;2024-01-30T06:35:06;101764.94;;;6.99;100.00
60832;BME280;46665;51.558;-0.448;2024-01-30T06:37:50;101768.25;;;7.01;100.00
60832;BME280;46665;51.558;-0.448;2024-01-30T06:40:34;101782.03;;;6.99;100.00
60832;BME280;46665;51.558;-0.448;2024-01-30T06:43:18;101791.09;;;7.05;100.00
60832;BME280;46665;51.558;-0.448;2024-01-30T06:46:02;101789.22;;;7.05;100.00
60832;BME280;46665;51.558;-0.448;2024-01-30T06:48:46;101797.94;;;7.07;100.00
60832;BME280;46665;51.558;-0.448;2024-01-30T06:51:31;101803.09;;;7.09;100.00
60832;BME280;46665;51.558;-0.448;2024-01-30T06:54:15;101814.78;;;7.09;100.00
60832;BME280;46665;51.558;-0.448;2024-01-30T06:56:59;101826.78;;;7.13;100.00
60832;BME280;46665;51.558;-0.448;2024-01-30T06:59:43;101819.34;;;7.09;100.00
60832;BME280;46665;51.558;-0.448;2024-01-30T07:02:27;101832.81;;;7.15;100.00
60832;BME280;46665;51.558;-0.448;2024-01-30T07:05:11;101847.84;;;7.11;100.00
60832;BME280;46665;51.558;-0.448;2024-01-30T07:07:55;101859.06;;;7.15;100.00
60832;BME280;46665;51.558;-0.448;2024-01-30T07:10:39;101851.41;;;7.12;100.00
60832;BME280;46665;51.558;-0.448;2024-01-30T07:13:23;101859.88;;;7.15;100.00
60832;BME280;46665;51.558;-0.448;2024-01-30T07:16:07;101851.53;;;7.17;100.00
60832;BME280;46665;51.558;-0.448;2024-01-30T07:18:51;101856.13;;;7.16;100.00
60832;BME280;46665;51.558;-0.448;2024-01-30T07:21:36;101850.31;;;7.13;100.00
60832;BME280;46665;51.558;-0.448;2024-01-30T07:24:20;101857.03;;;7.10;100.00
60832;BME280;46665;51.558;-0.448;2024-01-30T07:27:04;101868.91;;;7.09;100.00
60832;BME280;46665;51.558;-0.448;2024-01-30T07:29:47;101877.41;;;7.13;100.00
60832;BME280;46665;51.558;-0.448;2024-01-30T07:32:31;101875.81;;;7.05;100.00
60832;BME280;46665;51.558;-0.448;2024-01-30T07:35:16;101888.44;;;7.11;100.00
60832;BME280;46665;51.558;-0.448;2024-01-30T07:38:00;101913.25;;;7.08;100.00
60832;BME280;46665;51.558;-0.448;2024-01-30T07:40:44;101908.31;;;7.05;100.00
60832;BME280;46665;51.558;-0.448;2024-01-30T07:43:28;101911.22;;;7.04;100.00
60832;BME280;46665;51.558;-0.448;2024-01-30T07:46:12;101911.78;;;6.94;100.00
60832;BME280;46665;51.558;-0.448;2024-01-30T07:48:56;101918.69;;;6.90;100.00
60832;BME280;46665;51.558;-0.448;2024-01-30T07:51:41;101940.94;;;6.92;100.00
60832;BME280;46665;51.558;-0.448;2024-01-30T07:54:25;101945.75;;;6.90;100.00
60832;BME280;46665;51.558;-0.448;2024-01-30T07:57:09;101945.94;;;6.88;100.00
60832;BME280;46665;51.558;-0.448;2024-01-30T07:59:53;101961.63;;;6.86;100.00
60832;BME280;46665;51.558;-0.448;2024-01-30T08:02:37;101952.66;;;6.86;100.00
60832;BME280;46665;51.558;-0.448;2024-01-30T08:05:21;101964.06;;;6.88;100.00
60832;BME280;46665;51.558;-0.448;2024-01-30T08:08:06;101969.72;;;6.86;100.00
60832;BME280;46665;51.558;-0.448;2024-01-30T08:10:50;101967.44;;;6.83;100.00
60832;BME280;46665;51.558;-0.448;2024-01-30T08:13:34;101977.25;;;6.84;100.00
60832;BME280;46665;51.558;-0.448;2024-01-30T08:16:18;101985.34;;;6.84;100.00
60832;BME280;46665;51.558;-0.448;2024-01-30T08:19:02;101988.06;;;6.84;100.00
60832;BME280;46665;51.558;-0.448;2024-01-30T08:21:46;101995.13;;;6.85;100.00
60832;BME280;46665;51.558;-0.448;2024-01-30T08:24:31;101985.13;;;6.86;100.00
60832;BME280;46665;51.558;-0.448;2024-01-30T08:27:14;102005.28;;;6.90;100.00
60832;BME280;46665;51.558;-0.448;2024-01-30T08:29:58;101998.44;;;6.87;100.00
60832;BME280;46665;51.558;-0.448;2024-01-30T08:32:42;102004.66;;;6.88;100.00
60832;BME280;46665;51.558;-0.448;2024-01-30T08:35:26;102003.84;;;6.87;100.00
60832;BME280;46665;51.558;-0.448;2024-01-30T08:38:11;102007.81;;;6.85;100.00
60832;BME280;46665;51.558;-0.448;2024-01-30T08:40:56;102007.81;;;6.85;100.00
60832;BME280;46665;51.558;-0.448;2024-01-30T08:43:40;102014.47;;;6.89;100.00
60832;BME280;46665;51.558;-0.448;2024-01-30T08:46:24;102017.75;;;6.91;100.00
60832;BME280;46665;51.558;-0.448;2024-01-30T08:49:08;102030.25;;;6.92;100.00
60832;BME280;46665;51.558;-0.448;2024-01-30T08:51:52;102045.88;;;6.90;100.00
60832;BME280;46665;51.558;-0.448;2024-01-30T08:54:36;102056.69;;;6.90;100.00
60832;BME280;46665;51.558;-0.448;2024-01-30T08:57:20;102059.19;;;6.91;100.00
60832;BME280;46665;51.558;-0.448;2024-01-30T09:00:04;102059.75;;;6.93;100.00
60832;BME280;46665;51.558;-0.448;2024-01-30T09:02:50;102061.88;;;6.91;100.00
60832;BME280;46665;51.558;-0.448;2024-01-30T09:05:34;102068.94;;;6.92;100.00
60832;BME280;46665;51.558;-0.448;2024-01-30T09:08:18;102074.00;;;6.89;100.00
60832;BME280;46665;51.558;-0.448;2024-01-30T09:11:08;102083.97;;;6.88;100.00
60832;BME280;46665;51.558;-0.448;2024-01-30T09:13:52;102096.81;;;6.93;100.00
60832;BME280;46665;51.558;-0.448;2024-01-30T09:16:36;102093.97;;;6.88;100.00
60832;BME280;46665;51.558;-0.448;2024-01-30T09:19:20;102088.09;;;6.91;100.00
60832;BME280;46665;51.558;-0.448;2024-01-30T09:22:05;102092.84;;;6.95;100.00
60832;BME280;46665;51.558;-0.448;2024-01-30T09:24:50;102097.59;;;7.00;100.00
60832;BME280;46665;51.558;-0.448;2024-01-30T09:27:35;102117.53;;;7.06;100.00
60832;BME280;46665;51.558;-0.448;2024-01-30T09:30:19;102102.13;;;7.06;100.00
60832;BME280;46665;51.558;-0.448;2024-01-30T09:33:03;102119.13;;;7.13;100.00
60832;BME280;46665;51.558;-0.448;2024-01-30T09:35:47;102112.91;;;7.13;100.00
60832;BME280;46665;51.558;-0.448;2024-01-30T09:38:31;102120.19;;;7.12;100.00
60832;BME280;46665;51.558;-0.448;2024-01-30T09:41:15;102126.22;;;7.14;100.00
60832;BME280;46665;51.558;-0.448;2024-01-30T09:43:59;102132.00;;;7.18;100.00
60832;BME280;46665;51.558;-0.448;2024-01-30T09:46:46;102144.72;;;7.18;100.00
60832;BME280;46665;51.558;-0.448;2024-01-30T09:49:34;102142.03;;;7.18;100.00
60832;BME280;46665;51.558;-0.448;2024-01-30T09:52:19;102147.59;;;7.23;100.00
60832;BME280;46665;51.558;-0.448;2024-01-30T09:55:04;102155.28;;;7.26;100.00
60832;BME280;46665;51.558;-0.448;2024-01-30T09:57:48;102156.09;;;7.26;100.00
60832;BME280;46665;51.558;-0.448;2024-01-30T10:00:32;102156.53;;;7.23;100.00
60832;BME280;46665;51.558;-0.448;2024-01-30T10:03:16;102174.38;;;7.31;100.00
60832;BME280;46665;51.558;-0.448;2024-01-30T10:06:00;102175.22;;;7.31;100.00
60832;BME280;46665;51.558;-0.448;2024-01-30T10:08:44;102175.63;;;7.35;100.00
60832;BME280;46665;51.558;-0.448;2024-01-30T10:11:28;102169.13;;;7.36;100.00
60832;BME280;46665;51.558;-0.448;2024-01-30T10:14:12;102185.16;;;7.37;100.00
60832;BME280;46665;51.558;-0.448;2024-01-30T10:16:57;102190.13;;;7.41;100.00
60832;BME280;46665;51.558;-0.448;2024-01-30T10:19:41;102192.47;;;7.37;100.00
60832;BME280;46665;51.558;-0.448;2024-01-30T10:22:25;102213.97;;;7.32;100.00
60832;BME280;46665;51.558;-0.448;2024-01-30T10:25:10;102192.50;;;7.30;100.00
60832;BME280;46665;51.558;-0.448;2024-01-30T10:27:54;102206.66;;;7.32;100.00
60832;BME280;46665;51.558;-0.448;2024-01-30T10:30:39;102223.94;;;7.31;100.00
60832;BME280;46665;51.558;-0.448;2024-01-30T10:33:23;102229.81;;;7.28;100.00
60832;BME280;46665;51.558;-0.448;2024-01-30T10:36:07;102225.84;;;7.31;100.00
60832;BME280;46665;51.558;-0.448;2024-01-30T10:38:52;102240.00;;;7.33;100.00
60832;BME280;46665;51.558;-0.448;2024-01-30T10:41:44;102255.78;;;7.36;100.00
60832;BME280;46665;51.558;-0.448;2024-01-30T10:44:43;102254.19;;;7.28;100.00
60832;BME280;46665;51.558;-0.448;2024-01-30T10:47:28;102250.44;;;7.29;100.00
60832;BME280;46665;51.558;-0.448;2024-01-30T10:50:13;102264.41;;;7.26;100.00
60832;BME280;46665;51.558;-0.448;2024-01-30T10:52:58;102271.44;;;7.34;100.00
60832;BME280;46665;51.558;-0.448;2024-01-30T10:55:44;102278.97;;;7.32;100.00
60832;BME280;46665;51.558;-0.448;2024-01-30T10:58:30;102282.09;;;7.29;100.00
60832;BME280;46665;51.558;-0.448;2024-01-30T11:01:14;102292.75;;;7.24;100.00
60832;BME280;46665;51.558;-0.448;2024-01-30T11:03:59;102296.50;;;7.23;100.00
60832;BME280;46665;51.558;-0.448;2024-01-30T11:06:43;102300.28;;;7.22;100.00
60832;BME280;46665;51.558;-0.448;2024-01-30T11:09:29;102299.88;;;7.18;100.00
60832;BME280;46665;51.558;-0.448;2024-01-30T11:12:13;102297.97;;;7.19;100.00
60832;BME280;46665;51.558;-0.448;2024-01-30T11:17:50;102305.69;;;7.22;100.00
60832;BME280;46665;51.558;-0.448;2024-01-30T11:20:35;102305.69;;;7.22;100.00
60832;BME280;46665;51.558;-0.448;2024-01-30T11:23:22;102314.84;;;7.21;100.00
60832;BME280;46665;51.558;-0.448;2024-01-30T11:26:06;102318.16;;;7.23;100.00
60832;BME280;46665;51.558;-0.448;2024-01-30T11:28:52;102320.06;;;7.22;100.00
60832;BME280;46665;51.558;-0.448;2024-01-30T11:31:37;102313.19;;;7.20;100.00
60832;BME280;46665;51.558;-0.448;2024-01-30T11:34:21;102317.16;;;7.17;100.00
60832;BME280;46665;51.558;-0.448;2024-01-30T11:37:09;102325.91;;;7.19;100.00
60832;BME280;46665;51.558;-0.448;2024-01-30T11:39:56;102326.28;;;7.23;100.00
60832;BME280;46665;51.558;-0.448;2024-01-30T11:42:41;102327.34;;;7.22;100.00
60832;BME280;46665;51.558;-0.448;2024-01-30T11:45:27;102330.72;;;7.17;100.00
60832;BME280;46665;51.558;-0.448;2024-01-30T11:48:12;102335.69;;;7.20;100.00
60832;BME280;46665;51.558;-0.448;2024-01-30T11:50:56;102333.78;;;7.21;100.00
60832;BME280;46665;51.558;-0.448;2024-01-30T11:53:41;102334.84;;;7.20;100.00
60832;BME280;46665;51.558;-0.448;2024-01-30T11:56:25;102344.19;;;7.24;100.00
60832;BME280;46665;51.558;-0.448;2024-01-30T11:59:11;102339.38;;;7.26;100.00
60832;BME280;46665;51.558;-0.448;2024-01-30T12:01:55;102333.78;;;7.21;100.00
60832;BME280;46665;51.558;-0.448;2024-01-30T12:04:39;102335.03;;;7.25;100.00
60832;BME280;46665;51.558;-0.448;2024-01-30T12:07:23;102343.81;;;7.20;100.00
60832;BME280;46665;51.558;-0.448;2024-01-30T12:10:08;102344.88;;;7.19;100.00
60832;BME280;46665;51.558;-0.448;2024-01-30T12:12:53;102343.19;;;7.18;100.00
60832;BME280;46665;51.558;-0.448;2024-01-30T12:15:37;102347.56;;;7.19;100.00
60832;BME280;46665;51.558;-0.448;2024-01-30T12:18:21;102349.47;;;7.12;100.00
60832;BME280;46665;51.558;-0.448;2024-01-30T12:21:05;102352.56;;;7.15;100.00
60832;BME280;46665;51.558;-0.448;2024-01-30T12:23:49;102360.03;;;7.20;100.00
60832;BME280;46665;51.558;-0.448;2024-01-30T12:26:33;102356.88;;;7.30;100.00
60832;BME280;46665;51.558;-0.448;2024-01-30T12:29:17;102359.31;;;7.38;100.00
60832;BME280;46665;51.558;-0.448;2024-01-30T12:32:01;102375.38;;;7.40;100.00
60832;BME280;46665;51.558;-0.448;2024-01-30T12:34:45;102374.69;;;7.44;100.00
60832;BME280;46665;51.558;-0.448;2024-01-30T12:37:30;102369.44;;;7.49;100.00
60832;BME280;46665;51.558;-0.448;2024-01-30T12:40:15;102384.22;;;7.53;100.00
60832;BME280;46665;51.558;-0.448;2024-01-30T12:42:59;102388.19;;;7.51;100.00
60832;BME280;46665;51.558;-0.448;2024-01-30T12:45:43;102387.13;;;7.52;100.00
60832;BME280;46665;51.558;-0.448;2024-01-30T12:48:28;102388.59;;;7.54;100.00
60832;BME280;46665;51.558;-0.448;2024-01-30T12:51:13;102396.69;;;7.61;100.00
60832;BME280;46665;51.558;-0.448;2024-01-30T12:53:57;102386.50;;;7.56;100.00
60832;BME280;46665;51.558;-0.448;2024-01-30T12:56:41;102397.28;;;7.63;100.00
60832;BME280;46665;51.558;-0.448;2024-01-30T12:59:25;102398.91;;;7.71;100.00
60832;BME280;46665;51.558;-0.448;2024-01-30T13:02:09;102398.28;;;7.69;100.00
60832;BME280;46665;51.558;-0.448;2024-01-30T13:04:54;102397.63;;;7.73;100.00
60832;BME280;46665;51.558;-0.448;2024-01-30T13:07:38;102403.06;;;7.73;100.00
60832;BME280;46665;51.558;-0.448;2024-01-30T13:10:23;102414.09;;;7.72;100.00
60832;BME280;46665;51.558;-0.448;2024-01-30T13:13:07;102408.69;;;7.72;100.00
60832;BME280;46665;51.558;-0.448;2024-01-30T13:15:51;102408.69;;;7.72;100.00
60832;BME280;46665;51.558;-0.448;2024-01-30T13:18:35;102410.38;;;7.73;100.00
60832;BME280;46665;51.558;-0.448;2024-01-30T13:21:19;102405.78;;;7.73;100.00
60832;BME280;46665;51.558;-0.448;2024-01-30T13:24:03;102404.88;;;7.79;100.00
60832;BME280;46665;51.558;-0.448;2024-01-30T13:26:48;102405.50;;;7.81;100.00
60832;BME280;46665;51.558;-0.448;2024-01-30T13:29:32;102409.19;;;7.87;100.00
60832;BME280;46665;51.558;-0.448;2024-01-30T13:32:16;102415.19;;;7.96;100.00
60832;BME280;46665;51.558;-0.448;2024-01-30T13:35:00;102419.63;;;7.90;99.12
60832;BME280;46665;51.558;-0.448;2024-01-30T13:37:44;102438.03;;;7.81;99.68
60832;BME280;46665;51.558;-0.448;2024-01-30T13:40:31;102427.25;;;7.75;99.98
60832;BME280;46665;51.558;-0.448;2024-01-30T13:43:15;102434.34;;;7.69;100.00
60832;BME280;46665;51.558;-0.448;2024-01-30T13:46:00;102441.47;;;7.64;100.00
60832;BME280;46665;51.558;-0.448;2024-01-30T13:48:43;102439.59;;;7.64;100.00
60832;BME280;46665;51.558;-0.448;2024-01-30T13:51:28;102454.56;;;7.67;100.00
60832;BME280;46665;51.558;-0.448;2024-01-30T13:54:12;102442.53;;;7.63;100.00
60832;BME280;46665;51.558;-0.448;2024-01-30T13:56:56;102454.22;;;7.56;100.00
60832;BME280;46665;51.558;-0.448;2024-01-30T13:59:41;102452.34;;;7.57;100.00
60832;BME280;46665;51.558;-0.448;2024-01-30T14:02:25;102445.44;;;7.61;100.00
60832;BME280;46665;51.558;-0.448;2024-01-30T14:05:09;102449.41;;;7.65;100.00
60832;BME280;46665;51.558;-0.448;2024-01-30T14:07:53;102448.75;;;7.70;100.00